Terminal Aerodrome Forecast
Issued by NWS

Home | Current Version | Previous Version | Graphics & Text | Print | Product List | Glossary On
Versions: 1 2 3 4 5 6 7 8 9 10 11 12 13 14 15
015
FTUS45 KGGW 221504 AAA
TAFSDY
TAF AMD
KSDY 221504Z 2215/2312 34004KT P6SM OVC005
     FM221800 35004KT P6SM BKN024
     FM221900 35004KT P6SM BKN045
     FM230700 06008KT P6SM BKN019=

USA.gov is the U.S. government's official web portal to all federal, state and local government web resources and services.